Time;durP1;ratioP1;P1;durP2;ratioP2;P2;SDS_P1;SDS_P2;PMS_P1;PMS_P2;Temp;Humidity;BMP_temperature;BMP_pressure;BME280_temperature;BME280_humidity;BME280_pressure;Samples;Min_cycle;Max_cycle;Signal;HPM_P1;HPM_P2
2021/07/14 00:06:42;;;;;;;0.20;0.10;;;21.40;99.90;;;;;;20910738;28;20329;-67
2021/07/14 00:27:20;;;;;;;0.33;0.20;;;21.20;99.90;;;;;;20832862;28;20244;-67
2021/07/14 00:37:24;;;;;;;0.30;0.20;;;21.00;99.90;;;;;;20907398;28;20220;-65
2021/07/14 00:47:33;;;;;;;1.17;0.17;;;20.70;99.90;;;;;;20907921;28;20229;-66
2021/07/14 00:57:37;;;;;;;3.27;0.97;;;20.50;99.90;;;;;;20905107;28;20206;-67
2021/07/14 01:08:00;;;;;;;0.40;0.30;;;20.30;99.90;;;;;;20906332;28;20248;-67
2021/07/14 01:18:12;;;;;;;2.07;0.83;;;20.20;99.90;;;;;;20905848;28;20208;-64
2021/07/14 01:28:18;;;;;;;0.20;0.20;;;20.20;99.90;;;;;;20904338;28;20668;-66
2021/07/14 01:38:26;;;;;;;0.27;0.27;;;20.00;99.90;;;;;;20902888;28;20364;-67
2021/07/14 01:48:32;;;;;;;0.77;0.77;;;19.90;99.90;;;;;;20902277;28;20674;-68
2021/07/14 01:58:38;;;;;;;0.70;0.70;;;19.70;99.90;;;;;;20902524;28;20333;-66
2021/07/14 02:08:43;;;;;;;0.20;0.10;;;19.60;99.90;;;;;;20900123;28;20744;-67
2021/07/14 02:18:52;;;;;;;0.20;0.10;;;19.50;99.90;;;;;;20900782;28;20198;-67
2021/07/14 02:28:57;;;;;;;0.20;0.13;;;19.50;99.90;;;;;;20900126;28;20233;-67
2021/07/14 02:39:06;;;;;;;0.50;0.50;;;19.50;99.90;;;;;;20901289;28;20197;-67
2021/07/14 02:49:13;;;;;;;4.00;0.53;;;19.60;99.90;;;;;;20919274;28;20720;-67
2021/07/14 02:59:19;;;;;;;0.20;0.07;;;19.80;99.90;;;;;;20899114;28;20292;-65
2021/07/14 03:09:32;;;;;;;0.57;0.37;;;19.70;99.90;;;;;;20898924;28;20225;-67
2021/07/14 03:19:37;;;;;;;0.57;0.40;;;19.20;99.90;;;;;;20896259;28;20422;-67
2021/07/14 03:29:43;;;;;;;0.87;0.63;;;19.20;99.90;;;;;;20897841;28;20585;-68
2021/07/14 03:39:48;;;;;;;0.50;0.30;;;19.20;99.90;;;;;;20896835;28;20197;-66
2021/07/14 03:49:55;;;;;;;0.30;0.20;;;19.00;99.90;;;;;;20905650;28;20244;-67
2021/07/14 03:59:59;;;;;;;0.20;0.10;;;18.90;99.90;;;;;;20923122;22;20233;-68
2021/07/14 04:10:05;;;;;;;0.30;0.30;;;19.00;99.90;;;;;;20910328;28;20229;-67
2021/07/14 04:20:10;;;;;;;2.13;0.97;;;19.00;99.90;;;;;;20907776;28;20563;-66
2021/07/14 04:30:17;;;;;;;3.80;0.60;;;19.10;99.90;;;;;;20907882;28;20270;-66
2021/07/14 04:40:22;;;;;;;0.20;0.10;;;19.10;99.90;;;;;;20905322;28;20228;-66
2021/07/14 04:50:27;;;;;;;1.23;1.07;;;19.10;99.90;;;;;;20906690;28;20316;-66
2021/07/14 05:00:31;;;;;;;0.27;0.27;;;19.30;99.90;;;;;;20905079;28;20668;-66
2021/07/14 05:10:38;;;;;;;0.33;0.33;;;19.50;99.90;;;;;;20904625;28;20288;-66
2021/07/14 05:20:42;;;;;;;0.27;0.20;;;19.60;99.90;;;;;;20902680;28;20197;-66
2021/07/14 05:30:47;;;;;;;1.07;0.40;;;19.80;99.90;;;;;;20902351;28;20288;-66
2021/07/14 05:40:52;;;;;;;0.40;0.40;;;19.80;99.90;;;;;;20899413;28;20204;-65
2021/07/14 05:50:59;;;;;;;0.60;0.60;;;19.90;99.90;;;;;;20901205;28;20646;-67
2021/07/14 06:01:05;;;;;;;1.27;0.53;;;19.90;99.90;;;;;;20899396;28;20233;-68
2021/07/14 06:11:10;;;;;;;0.60;0.40;;;19.90;99.90;;;;;;20896580;28;20209;-67
2021/07/14 06:21:14;;;;;;;0.57;0.50;;;20.00;99.90;;;;;;20895700;28;20304;-67
2021/07/14 06:31:19;;;;;;;0.40;0.40;;;20.30;99.90;;;;;;20896991;28;20201;-67
2021/07/14 06:41:23;;;;;;;0.70;0.70;;;20.50;99.90;;;;;;20897332;28;20300;-68
2021/07/14 06:51:28;;;;;;;0.57;0.57;;;20.70;99.90;;;;;;20895536;28;20288;-67
2021/07/14 07:01:32;;;;;;;3.27;0.63;;;21.20;99.90;;;;;;20896119;28;20695;-66
2021/07/14 07:11:37;;;;;;;0.82;0.50;;;21.50;99.90;;;;;;20884044;28;20426;-67
2021/07/14 07:21:41;;;;;;;0.63;0.40;;;21.80;99.90;;;;;;20899051;28;20221;-67
2021/07/14 07:31:46;;;;;;;0.30;0.30;;;22.10;99.90;;;;;;20909653;28;20197;-67
2021/07/14 07:41:50;;;;;;;1.73;0.40;;;22.70;99.90;;;;;;20910438;28;20517;-67
2021/07/14 07:51:55;;;;;;;0.30;0.30;;;22.70;99.90;;;;;;20910607;28;20598;-68
2021/07/14 08:01:58;;;;;;;0.73;0.40;;;22.90;99.90;;;;;;20880675;28;20254;-66
2021/07/14 08:12:05;;;;;;;0.53;0.33;;;23.00;99.90;;;;;;20896940;28;20193;-66
2021/07/14 08:22:09;;;;;;;0.73;0.73;;;23.30;99.90;;;;;;20851132;28;20253;-65
2021/07/14 08:32:14;;;;;;;2.60;0.97;;;23.40;99.90;;;;;;20842737;28;20201;-66
2021/07/14 08:42:20;;;;;;;0.63;0.40;;;23.30;99.90;;;;;;20904686;28;20247;-69
2021/07/14 08:52:25;;;;;;;2.60;0.80;;;23.50;99.90;;;;;;20905438;28;20643;-66
2021/07/14 09:02:29;;;;;;;2.05;0.93;;;23.60;99.90;;;;;;20904460;28;20233;-66
2021/07/14 09:12:38;;;;;;;0.80;0.50;;;23.60;99.90;;;;;;20902266;28;20196;-66
2021/07/14 09:22:43;;;;;;;1.67;0.95;;;24.00;99.90;;;;;;20902463;28;20221;-64
2021/07/14 09:32:51;;;;;;;0.73;0.38;;;24.30;99.90;;;;;;20900368;28;20204;-65
2021/07/14 09:42:58;;;;;;;1.10;0.93;;;24.70;99.90;;;;;;20899053;28;20635;-64
2021/07/14 09:53:05;;;;;;;1.35;0.50;;;24.50;99.90;;;;;;20899922;28;20255;-65
2021/07/14 10:03:08;;;;;;;0.50;0.50;;;24.70;99.90;;;;;;20899548;28;20229;-66
2021/07/14 10:13:13;;;;;;;0.50;0.47;;;24.80;99.90;;;;;;20894266;28;20606;-68
2021/07/14 10:23:17;;;;;;;0.80;0.50;;;24.80;99.90;;;;;;20896472;28;20225;-68
2021/07/14 10:33:24;;;;;;;1.33;1.23;;;25.30;99.90;;;;;;20896677;28;20195;-66
2021/07/14 10:43:30;;;;;;;0.85;0.52;;;26.00;99.90;;;;;;20895951;28;20217;-66
2021/07/14 10:53:58;;;;;;;0.65;0.38;;;26.00;99.90;;;;;;20896314;28;20193;-68
2021/07/14 11:04:03;;;;;;;0.30;0.25;;;26.40;99.90;;;;;;20910060;28;20315;-66
2021/07/14 11:14:10;;;;;;;0.57;0.50;;;26.80;99.90;;;;;;20904083;28;20190;-69
2021/07/14 11:24:37;;;;;;;1.10;0.98;;;27.20;99.90;;;;;;20910364;28;20232;-66
2021/07/14 11:34:58;;;;;;;1.10;0.80;;;27.70;99.90;;;;;;20908928;28;20201;-64
2021/07/14 11:45:09;;;;;;;0.30;0.30;;;28.20;99.90;;;;;;20910339;28;20316;-68
2021/07/14 11:55:39;;;;;;;5.43;1.45;;;28.80;99.90;;;;;;20905693;28;20194;-67
2021/07/14 12:05:43;;;;;;;0.50;0.50;;;29.70;99.90;;;;;;20851025;28;20252;-66
2021/07/14 12:15:48;;;;;;;0.95;0.70;;;29.60;99.90;;;;;;20904610;28;20194;-65
2021/07/14 12:26:02;;;;;;;1.55;0.68;;;30.10;99.90;;;;;;20902554;28;20225;-67
2021/07/14 12:36:08;;;;;;;1.10;0.98;;;30.10;99.90;;;;;;20902558;28;20212;-67
2021/07/14 12:46:23;;;;;;;1.70;0.63;;;29.80;99.90;;;;;;20902315;28;20698;-67
2021/07/14 12:56:29;;;;;;;0.70;0.57;;;30.30;99.90;;;;;;20902419;28;20193;-67
2021/07/14 13:06:33;;;;;;;1.10;0.70;;;31.40;99.90;;;;;;20900919;28;20256;-67
2021/07/14 13:16:42;;;;;;;1.83;0.40;;;31.30;99.90;;;;;;20900426;28;20202;-69
2021/07/14 13:26:57;;;;;;;0.70;0.57;;;31.40;99.90;;;;;;20899416;28;20316;-68
2021/07/14 13:37:03;;;;;;;0.60;0.40;;;31.60;99.90;;;;;;20897534;28;20248;-67
2021/07/14 13:47:06;;;;;;;7.65;1.05;;;31.60;99.90;;;;;;20897345;28;20229;-68
2021/07/14 13:57:24;;;;;;;3.42;0.60;;;32.40;99.90;;;;;;20896072;28;20259;-67
2021/07/14 14:07:31;;;;;;;1.75;1.65;;;32.10;99.90;;;;;;20894353;28;20233;-67
2021/07/14 14:17:37;;;;;;;1.17;0.90;;;32.10;99.90;;;;;;20894654;28;20196;-67
2021/07/14 14:27:49;;;;;;;1.23;0.70;;;31.30;99.90;;;;;;20894967;28;20221;-66
2021/07/14 14:37:56;;;;;;;0.52;0.50;;;32.70;99.90;;;;;;20892924;28;20189;-67
2021/07/14 14:47:59;;;;;;;1.25;0.93;;;32.70;99.90;;;;;;20893163;28;20349;-66
2021/07/14 14:58:21;;;;;;;1.15;0.50;;;32.90;99.90;;;;;;20891170;28;20223;-66
2021/07/14 15:08:25;;;;;;;2.75;1.00;;;32.10;99.90;;;;;;20892552;28;20256;-68
2021/07/14 15:18:33;;;;;;;4.60;1.52;;;32.00;99.90;;;;;;20892307;28;20201;-68
2021/07/14 15:28:40;;;;;;;0.70;0.35;;;32.80;99.90;;;;;;20893521;28;20584;-67
2021/07/14 15:38:46;;;;;;;2.08;0.88;;;32.40;99.90;;;;;;20889442;28;20202;-67
2021/07/14 15:48:49;;;;;;;2.53;0.75;;;32.60;99.90;;;;;;20904723;28;20255;-65
2021/07/14 15:58:55;;;;;;;1.17;0.77;;;32.00;99.90;;;;;;20904356;28;20194;-66
2021/07/14 16:08:58;;;;;;;3.85;0.52;;;31.70;99.90;;;;;;20902601;28;20233;-67
2021/07/14 16:19:06;;;;;;;0.88;0.50;;;31.10;99.90;;;;;;20903717;28;20225;-70
2021/07/14 16:29:10;;;;;;;0.68;0.38;;;29.50;99.90;;;;;;20896031;28;20920;-67
2021/07/14 16:39:16;;;;;;;4.88;0.52;;;28.10;99.90;;;;;;20902558;28;20221;-68
2021/07/14 16:49:21;;;;;;;0.40;0.40;;;27.10;99.90;;;;;;20899585;28;20299;-69
2021/07/14 16:59:26;;;;;;;1.75;0.90;;;26.70;99.90;;;;;;20897586;28;20193;-67
2021/07/14 17:09:29;;;;;;;2.30;1.10;;;26.30;99.90;;;;;;20900497;28;20716;-66
2021/07/14 17:19:35;;;;;;;3.42;1.23;;;26.80;99.90;;;;;;20899874;28;20229;-67
2021/07/14 17:29:39;;;;;;;3.97;0.80;;;26.50;99.90;;;;;;20896496;28;20312;-67
2021/07/14 17:39:46;;;;;;;1.38;0.65;;;27.00;99.90;;;;;;20897275;28;20224;-67
2021/07/14 17:49:51;;;;;;;1.00;1.00;;;25.80;99.90;;;;;;20897315;28;20276;-66
2021/07/14 17:59:59;;;;;;;0.52;0.50;;;25.90;99.90;;;;;;20887328;28;20237;-65
2021/07/14 18:10:04;;;;;;;0.30;0.30;;;25.90;99.90;;;;;;20897201;28;20235;-67
2021/07/14 18:20:13;;;;;;;0.63;0.63;;;26.40;99.90;;;;;;20894885;28;20200;-67
2021/07/14 18:30:18;;;;;;;1.05;0.50;;;25.80;99.90;;;;;;20894787;28;20225;-67
2021/07/14 18:40:23;;;;;;;1.13;1.05;;;25.50;99.90;;;;;;20894867;28;20194;-66
2021/07/14 18:50:27;;;;;;;1.42;1.08;;;25.90;99.90;;;;;;20895989;28;20741;-68
2021/07/14 19:00:35;;;;;;;0.32;0.32;;;25.90;99.90;;;;;;20822045;28;20264;-67
2021/07/14 19:10:39;;;;;;;3.78;0.60;;;24.90;99.90;;;;;;20811474;28;20229;-69
2021/07/14 19:20:44;;;;;;;5.90;0.70;;;24.80;99.90;;;;;;20822935;28;20202;-68
2021/07/14 19:30:51;;;;;;;0.57;0.50;;;24.60;99.90;;;;;;20883486;28;20742;-68
2021/07/14 19:40:57;;;;;;;1.25;1.00;;;24.20;99.90;;;;;;20901543;28;20289;-67
2021/07/14 19:51:00;;;;;;;0.20;0.20;;;24.30;99.90;;;;;;20908725;28;20765;-68
2021/07/14 20:01:06;;;;;;;0.20;0.10;;;24.20;99.90;;;;;;20907769;28;20271;-67
2021/07/14 20:11:10;;;;;;;0.50;0.22;;;24.10;99.90;;;;;;20898973;28;20221;-69
2021/07/14 20:21:15;;;;;;;1.75;0.73;;;24.00;99.90;;;;;;20876375;28;20198;-67
2021/07/14 20:31:19;;;;;;;0.57;0.35;;;24.20;99.90;;;;;;20906853;28;20227;-66
2021/07/14 20:41:24;;;;;;;0.68;0.30;;;24.10;99.90;;;;;;20907604;28;20197;-66
2021/07/14 20:51:27;;;;;;;1.45;0.35;;;24.30;99.90;;;;;;20908094;28;20582;-69
2021/07/14 21:01:32;;;;;;;2.55;0.50;;;24.30;99.90;;;;;;20906988;28;20217;-68
2021/07/14 21:11:38;;;;;;;4.03;0.70;;;24.10;99.90;;;;;;20905872;28;20308;-67
2021/07/14 21:21:43;;;;;;;0.82;0.40;;;23.80;99.90;;;;;;20902562;28;20292;-66
2021/07/14 21:31:46;;;;;;;0.28;0.20;;;24.00;99.90;;;;;;20902951;28;20245;-67
2021/07/14 21:41:51;;;;;;;0.30;0.30;;;24.20;99.90;;;;;;20901837;28;20197;-68
2021/07/14 21:51:55;;;;;;;3.95;1.65;;;24.20;99.90;;;;;;20901166;28;20225;-67
2021/07/14 22:02:01;;;;;;;0.70;0.30;;;24.00;99.90;;;;;;20882668;28;20252;-68
2021/07/14 22:12:05;;;;;;;1.17;0.28;;;23.90;99.90;;;;;;20900294;28;20319;-67
2021/07/14 22:22:12;;;;;;;3.70;0.90;;;23.90;99.90;;;;;;20901112;28;20196;-67
2021/07/14 22:32:15;;;;;;;0.40;0.40;;;23.90;99.90;;;;;;20900140;28;20222;-67
2021/07/14 22:42:21;;;;;;;2.83;0.63;;;24.00;99.90;;;;;;20899886;28;20194;-65
2021/07/14 22:52:24;;;;;;;8.53;0.63;;;23.90;99.90;;;;;;20903988;28;20225;-66
2021/07/14 23:02:29;;;;;;;0.30;0.10;;;24.00;99.90;;;;;;20916199;28;20568;-67
2021/07/14 23:12:33;;;;;;;1.10;0.52;;;24.00;99.90;;;;;;20915110;28;20251;-66
2021/07/14 23:22:38;;;;;;;0.28;0.20;;;23.80;99.90;;;;;;20914970;28;20204;-67
2021/07/14 23:32:42;;;;;;;0.70;0.32;;;23.90;99.90;;;;;;20913928;28;20315;-67
2021/07/14 23:42:48;;;;;;;4.88;0.57;;;24.00;99.90;;;;;;20913808;28;20225;-66
2021/07/14 23:52:52;;;;;;;0.20;0.10;;;23.80;99.90;;;;;;20912569;28;20231;-67
